Lagrange, Ohio
Current Conditions -  °F | °C
As of 1:53 AM on Thursday 23 Oct 2014 (Local Time) from KLPR Reporting Station
Broken Clouds Broken Clouds  
Wind Chill: 47°   Ceiling: 4000
Heat Index: 47°   Visibility: 10mi
Dew Point: 45°   Wind: 0mph
Humidity: 93%   Direction: NA
Pressure: 30.23"   Gusts: NA
Location:  41.24°N, 82.12°W
Report Text: KLPR 230553Z AUTO 00000KT 10SM BKN040 08/07 A3023 RMK AO2 SLPNO T00830072 10106 20083 56007 TSNO
Loading
Personal Weather Stations






























Interactive Weather Map
Tropical Storm Tracking
New forecast layout! Learn more

10-Day Weather Forecast

Advertisements
Track Severe Weather on mobile